Picton, New Zealand
Current Conditions -  °F | °C
As of 12:30 AM on Wednesday 28 Jan 2015 (Local Time) from NZWN Reporting Station
Clear Clear  
Wind Chill: 68°   Ceiling: Unl
Heat Index: 68°   Visibility: 6mi
Dew Point: 59°   Wind: 3mph
Humidity: 73%   Direction: 60°ENE
Pressure: 29.88"   Gusts: NA
Location:  41.3°S, 174.01°E
Report Text: NZWN 271230Z AUTO 06003KT 9999 NCD 20/15 Q1012 NOSIG
Loading
Personal Weather Stations






























Interactive Weather Map New forecast layout! Learn more

10-Day Weather Forecast

Advertisements
Track Severe Weather on mobile